Time;durP1;ratioP1;P1;durP2;ratioP2;P2;SDS_P1;SDS_P2;PMS_P1;PMS_P2;Temp;Humidity;BMP_temperature;BMP_pressure;BME280_temperature;BME280_humidity;BME280_pressure;Samples;Min_cycle;Max_cycle;Signal;HPM_P1;HPM_P2
2024/01/22 00:01:49;;;;;;;;;;;11.20;99.90;;;;;;5060195;28;20398;-87
2024/01/22 00:04:18;;;;;;;;;;;11.20;99.90;;;;;;5059988;28;20066;-85
2024/01/22 00:06:43;;;;;;;;;;;11.20;99.90;;;;;;5058910;28;19981;-85
2024/01/22 00:09:09;;;;;;;;;;;11.20;99.90;;;;;;5057589;28;19953;-85
2024/01/22 00:11:43;;;;;;;;;;;11.20;99.90;;;;;;5053993;28;20048;-85
2024/01/22 00:14:08;;;;;;;;;;;11.10;99.90;;;;;;5053879;28;20438;-85
2024/01/22 00:16:37;;;;;;;;;;;11.20;99.90;;;;;;5056672;28;20055;-85
2024/01/22 00:19:05;;;;;;;;;;;11.10;99.90;;;;;;5044191;28;20484;-86
2024/01/22 00:21:31;;;;;;;;;;;11.20;99.90;;;;;;5045131;28;19961;-85
2024/01/22 00:24:03;;;;;;;;;;;11.10;99.90;;;;;;5053175;28;19942;-85
2024/01/22 00:26:29;;;;;;;;;;;11.10;99.90;;;;;;5046479;28;19969;-86
2024/01/22 00:28:54;;;;;;;;;;;11.20;99.90;;;;;;5031868;28;19996;-87
2024/01/22 00:31:23;;;;;;;;;;;11.20;99.90;;;;;;5057299;28;20377;-87
2024/01/22 00:33:48;;;;;;;;;;;11.20;99.90;;;;;;5051893;28;20333;-86
2024/01/22 00:36:14;;;;;;;;;;;11.20;99.90;;;;;;5042030;28;19958;-86
2024/01/22 00:38:40;;;;;;;;;;;11.20;99.90;;;;;;5052987;28;19951;-87
2024/01/22 00:41:06;;;;;;;;;;;11.20;99.90;;;;;;5037386;28;19952;-87
2024/01/22 00:43:31;;;;;;;;;;;11.20;99.90;;;;;;5049862;28;19938;-86
2024/01/22 00:45:57;;;;;;;;;;;11.20;99.90;;;;;;5055791;28;19942;-86
2024/01/22 00:48:23;;;;;;;;;;;11.20;99.90;;;;;;5040861;28;21217;-85
2024/01/22 00:50:51;;;;;;;;;;;11.20;99.90;;;;;;5045845;28;19940;-85
2024/01/22 00:53:16;;;;;;;;;;;11.20;99.90;;;;;;5049312;28;19955;-86
2024/01/22 00:55:42;;;;;;;;;;;11.10;99.90;;;;;;5047533;28;19951;-86
2024/01/22 00:58:07;;;;;;;;;;;11.20;99.90;;;;;;5051352;28;20427;-86
2024/01/22 01:00:33;;;;;;;;;;;11.20;99.90;;;;;;5050979;28;20467;-89
2024/01/22 01:02:58;;;;;;;;;;;11.10;99.90;;;;;;5058421;28;20456;-87
2024/01/22 01:05:24;;;;;;;;;;;11.20;99.90;;;;;;5046845;28;20602;-88
2024/01/22 01:07:49;;;;;;;;;;;11.10;99.90;;;;;;5045418;28;19965;-87
2024/01/22 01:10:15;;;;;;;;;;;11.20;99.90;;;;;;5046970;28;20011;-88
2024/01/22 01:12:40;;;;;;;;;;;11.20;99.90;;;;;;5052307;28;19949;-87
2024/01/22 01:15:06;;;;;;;;;;;11.20;99.90;;;;;;5047498;28;20425;-88
2024/01/22 01:17:31;;;;;;;;;;;11.20;99.90;;;;;;5047097;28;19961;-86
2024/01/22 01:19:57;;;;;;;;;;;11.20;99.90;;;;;;5048686;28;20360;-85
2024/01/22 01:22:22;;;;;;;;;;;11.20;99.90;;;;;;5054226;28;20789;-87
2024/01/22 01:24:52;;;;;;;;;;;11.10;99.90;;;;;;5044021;28;19951;-87
2024/01/22 01:27:18;;;;;;;;;;;11.20;99.90;;;;;;5053906;28;19950;-85
2024/01/22 01:29:43;;;;;;;;;;;11.20;99.90;;;;;;5059081;28;19955;-86
2024/01/22 01:32:09;;;;;;;;;;;11.20;99.90;;;;;;5060771;28;20040;-86
2024/01/22 01:34:35;;;;;;;;;;;11.10;99.90;;;;;;5053865;28;20499;-85
2024/01/22 01:37:01;;;;;;;;;;;11.20;99.90;;;;;;5037424;28;20195;-86
2024/01/22 01:39:26;;;;;;;;;;;11.20;99.90;;;;;;5042594;28;20247;-87
2024/01/22 01:41:52;;;;;;;;;;;11.20;99.90;;;;;;5045711;28;19941;-86
2024/01/22 01:44:18;;;;;;;;;;;11.30;99.90;;;;;;5050711;28;19956;-87
2024/01/22 01:46:43;;;;;;;;;;;11.30;99.90;;;;;;5051541;28;20297;-86
2024/01/22 01:49:09;;;;;;;;;;;11.40;99.90;;;;;;5044592;28;20146;-86
2024/01/22 01:51:36;;;;;;;;;;;11.40;99.90;;;;;;5036313;28;19944;-85
2024/01/22 01:54:02;;;;;;;;;;;11.40;99.90;;;;;;5044112;28;19952;-85
2024/01/22 01:56:28;;;;;;;;;;;11.40;99.90;;;;;;5043895;28;19944;-85
2024/01/22 01:58:54;;;;;;;;;;;11.50;99.90;;;;;;5050365;28;19951;-85
2024/01/22 02:01:20;;;;;;;;;;;11.50;99.90;;;;;;5050857;28;20142;-84
2024/01/22 02:03:46;;;;;;;;;;;11.50;99.90;;;;;;5048910;28;19952;-85
2024/01/22 02:06:12;;;;;;;;;;;11.50;99.90;;;;;;5043231;28;20002;-85
2024/01/22 02:08:37;;;;;;;;;;;11.60;99.90;;;;;;5051921;28;19939;-84
2024/01/22 02:11:03;;;;;;;;;;;11.60;99.90;;;;;;5049711;28;19943;-84
2024/01/22 02:13:28;;;;;;;;;;;11.60;99.90;;;;;;5056179;28;19941;-84
2024/01/22 02:15:54;;;;;;;;;;;11.60;99.90;;;;;;5061249;28;20041;-83
2024/01/22 02:18:20;;;;;;;;;;;11.60;99.90;;;;;;5055689;28;19942;-83
2024/01/22 02:20:45;;;;;;;;;;;11.60;99.90;;;;;;5038091;28;19945;-84
2024/01/22 02:23:11;;;;;;;;;;;11.60;99.90;;;;;;5046827;28;20540;-84
2024/01/22 02:25:36;;;;;;;;;;;11.60;99.90;;;;;;5041685;28;19946;-84
2024/01/22 02:28:02;;;;;;;;;;;11.60;99.90;;;;;;5043297;28;19996;-84
2024/01/22 02:30:27;;;;;;;;;;;11.60;99.90;;;;;;5051327;28;20496;-84
2024/01/22 02:32:53;;;;;;;;;;;11.60;99.90;;;;;;5052775;28;20614;-83
2024/01/22 02:35:18;;;;;;;;;;;11.60;99.90;;;;;;5046014;28;19952;-83
2024/01/22 02:37:44;;;;;;;;;;;11.60;99.90;;;;;;5053465;28;20245;-83
2024/01/22 02:40:10;;;;;;;;;;;11.60;99.90;;;;;;5051649;28;19953;-82
2024/01/22 02:42:35;;;;;;;;;;;11.60;99.90;;;;;;5043719;28;19955;-83
2024/01/22 02:45:01;;;;;;;;;;;11.60;99.90;;;;;;5054910;28;19946;-83
2024/01/22 02:47:26;;;;;;;;;;;11.60;99.90;;;;;;5058309;28;25089;-83
2024/01/22 02:49:52;;;;;;;;;;;11.60;99.90;;;;;;5054552;28;19939;-82
2024/01/22 02:52:17;;;;;;;;;;;11.60;99.90;;;;;;5046558;28;19982;-82
2024/01/22 02:54:43;;;;;;;;;;;11.60;99.90;;;;;;5039261;28;20193;-82
2024/01/22 02:57:10;;;;;;;;;;;11.60;99.90;;;;;;5047868;28;19953;-82
2024/01/22 02:59:36;;;;;;;;;;;11.60;99.90;;;;;;5047748;28;21159;-82
2024/01/22 03:02:02;;;;;;;;;;;11.60;99.90;;;;;;5047574;28;19951;-82
2024/01/22 03:04:28;;;;;;;;;;;11.60;99.90;;;;;;5055235;28;20329;-81
2024/01/22 03:06:53;;;;;;;;;;;11.50;99.90;;;;;;5050032;28;19953;-81
2024/01/22 03:09:19;;;;;;;;;;;11.50;99.90;;;;;;5060928;28;19945;-81
2024/01/22 03:11:44;;;;;;;;;;;11.60;99.90;;;;;;5063188;28;19994;-80
2024/01/22 03:14:10;;;;;;;;;;;11.50;99.90;;;;;;5079437;28;19947;-80
2024/01/22 03:16:36;;;;;;;;;;;11.60;99.90;;;;;;5073508;28;19938;-80
2024/01/22 03:19:01;;;;;;;;;;;11.50;99.90;;;;;;5069677;28;19961;-82
2024/01/22 03:21:27;;;;;;;;;;;11.50;99.90;;;;;;5071979;28;20026;-80
2024/01/22 03:23:52;;;;;;;;;;;11.50;99.90;;;;;;5046909;28;20061;-80
2024/01/22 03:26:19;;;;;;;;;;;11.50;99.90;;;;;;5046885;28;19963;-82
2024/01/22 03:28:45;;;;;;;;;;;11.50;99.90;;;;;;5050002;28;19949;-82
2024/01/22 03:31:20;;;;;;;;;;;11.50;99.90;;;;;;5050143;28;19931;-82
2024/01/22 03:33:45;;;;;;;;;;;11.40;99.90;;;;;;5045505;28;19990;-82
2024/01/22 03:36:11;;;;;;;;;;;11.40;99.90;;;;;;5047343;28;20378;-82
2024/01/22 03:38:38;;;;;;;;;;;;;;;;;;5048184;28;20021;-82
2024/01/22 03:41:04;;;;;;;;;;;;;;;;;;5056272;28;20035;-82
2024/01/22 03:43:29;;;;;;;;;;;11.50;99.90;;;;;;5059557;28;20389;-82
2024/01/22 03:45:55;;;;;;;;;;;;;;;;;;5068662;28;19948;-82
2024/01/22 03:48:21;;;;;;;;;;;11.40;99.90;;;;;;5070071;28;20044;-83
2024/01/22 03:50:46;;;;;;;;;;;11.40;99.90;;;;;;5062512;28;20474;-82
2024/01/22 03:53:12;;;;;;;;;;;11.30;99.90;;;;;;5050920;28;19955;-82
2024/01/22 03:55:37;;;;;;;;;;;11.30;99.90;;;;;;5045506;28;20453;-82
2024/01/22 03:58:08;;;;;;;;;;;11.30;99.90;;;;;;5051401;28;19947;-82
2024/01/22 04:00:34;;;;;;;;;;;11.20;99.90;;;;;;5046391;28;19947;-82
2024/01/22 04:02:59;;;;;;;;;;;11.20;99.90;;;;;;5050980;28;20008;-82
2024/01/22 04:05:25;;;;;;;;;;;11.30;99.90;;;;;;5056288;28;19949;-82
2024/01/22 04:07:50;;;;;;;;;;;11.20;99.90;;;;;;5042771;28;20325;-82
2024/01/22 04:10:16;;;;;;;;;;;11.20;99.90;;;;;;5046323;28;19957;-82
2024/01/22 04:12:41;;;;;;;;;;;11.30;99.90;;;;;;5049566;28;19949;-82
2024/01/22 04:15:07;;;;;;;;;;;11.20;99.90;;;;;;5046730;28;19960;-82
2024/01/22 04:17:33;;;;;;;;;;;11.20;99.90;;;;;;5055332;28;19945;-82
2024/01/22 04:19:58;;;;;;;;;;;11.20;99.90;;;;;;5042605;28;20038;-82
2024/01/22 04:22:24;;;;;;;;;;;;;;;;;;5046415;28;20422;-82
2024/01/22 04:24:50;;;;;;;;;;;;;;;;;;5053396;28;19982;-82
2024/01/22 04:27:16;;;;;;;;;;;11.30;99.90;;;;;;5052342;28;19946;-82
2024/01/22 04:29:41;;;;;;;;;;;11.20;99.90;;;;;;5046843;28;20379;-82
2024/01/22 04:32:07;;;;;;;;;;;;;;;;;;5049453;28;19967;-82
2024/01/22 04:34:33;;;;;;;;;;;11.20;99.90;;;;;;5050486;28;19949;-82
2024/01/22 04:36:59;;;;;;;;;;;;;;;;;;5049745;28;19950;-82
2024/01/22 04:39:25;;;;;;;;;;;;;;;;;;5049016;28;20119;-82
2024/01/22 04:41:51;;;;;;;;;;;11.20;99.90;;;;;;5053522;28;19941;-83
2024/01/22 04:44:16;;;;;;;;;;;11.30;99.90;;;;;;5052614;28;20466;-83
2024/01/22 04:46:42;;;;;;;;;;;11.30;99.90;;;;;;5052668;28;19993;-83
2024/01/22 04:49:09;;;;;;;;;;;11.30;99.90;;;;;;5049029;28;19961;-83
2024/01/22 04:51:34;;;;;;;;;;;11.40;99.90;;;;;;5044117;28;20035;-83
2024/01/22 04:54:00;;;;;;;;;;;11.40;99.90;;;;;;5044690;28;19947;-83
2024/01/22 04:56:25;;;;;;;;;;;11.40;99.90;;;;;;5051322;28;19949;-83
2024/01/22 04:58:54;;;;;;;;;;;;;;;;;;5053175;28;20403;-83
2024/01/22 05:01:20;;;;;;;;;;;;;;;;;;5055397;28;19952;-83
2024/01/22 05:03:45;;;;;;;;;;;11.60;99.90;;;;;;5051875;28;19943;-83
2024/01/22 05:06:11;;;;;;;;;;;11.50;99.90;;;;;;5053662;28;20197;-83
2024/01/22 05:08:36;;;;;;;;;;;11.50;99.90;;;;;;5048221;28;19992;-83
2024/01/22 05:11:02;;;;;;;;;;;11.50;99.90;;;;;;5051542;28;19951;-83
2024/01/22 05:13:27;;;;;;;;;;;11.40;99.90;;;;;;5057575;28;20632;-84
2024/01/22 05:15:53;;;;;;;;;;;11.30;99.90;;;;;;5051698;28;20087;-84
2024/01/22 05:18:19;;;;;;;;;;;11.20;99.90;;;;;;5049294;28;20053;-84
2024/01/22 05:20:44;;;;;;;;;;;11.10;99.90;;;;;;5047740;28;19969;-85
2024/01/22 05:23:10;;;;;;;;;;;11.00;99.90;;;;;;5054933;28;19967;-85
2024/01/22 05:25:35;;;;;;;;;;;11.00;99.90;;;;;;5043913;28;19942;-83
2024/01/22 05:28:01;;;;;;;;;;;10.80;99.90;;;;;;5048925;28;19937;-83
2024/01/22 05:30:26;;;;;;;;;;;10.70;99.90;;;;;;5051279;28;20347;-84
2024/01/22 05:32:52;;;;;;;;;;;10.30;99.90;;;;;;5054967;28;20314;-84
2024/01/22 05:35:17;;;;;;;;;;;9.90;99.90;;;;;;5055525;28;19945;-84
2024/01/22 05:37:43;;;;;;;;;;;9.70;99.90;;;;;;5053980;28;20006;-84
2024/01/22 05:40:10;;;;;;;;;;;9.70;99.90;;;;;;5050336;28;20427;-84
2024/01/22 05:42:35;;;;;;;;;;;9.70;99.90;;;;;;5064446;28;19941;-82
2024/01/22 05:45:02;;;;;;;;;;;9.60;99.90;;;;;;5081386;28;19963;-82
2024/01/22 05:47:27;;;;;;;;;;;9.60;99.90;;;;;;5076684;28;19958;-85
2024/01/22 05:49:53;;;;;;;;;;;9.70;99.90;;;;;;5071686;28;19959;-85
2024/01/22 05:52:19;;;;;;;;;;;9.60;99.90;;;;;;5080026;28;20081;-85
2024/01/22 05:54:45;;;;;;;;;;;9.50;99.90;;;;;;5059848;28;19945;-85
2024/01/22 05:57:11;;;;;;;;;;;9.50;99.90;;;;;;5046261;28;19952;-85
2024/01/22 05:59:42;;;;;;;;;;;9.50;99.90;;;;;;5048517;28;19961;-85
2024/01/22 06:02:07;;;;;;;;;;;9.50;99.90;;;;;;5051490;28;19950;-85
2024/01/22 06:04:33;;;;;;;;;;;9.50;99.90;;;;;;5052531;28;20036;-85
2024/01/22 06:06:58;;;;;;;;;;;9.40;99.90;;;;;;5057455;28;19949;-84
2024/01/22 06:09:25;;;;;;;;;;;9.30;99.90;;;;;;5050077;28;20471;-84
2024/01/22 06:11:50;;;;;;;;;;;9.20;99.90;;;;;;5051759;28;19953;-85
2024/01/22 06:14:16;;;;;;;;;;;9.10;99.90;;;;;;5044081;28;20080;-85
2024/01/22 06:16:41;;;;;;;;;;;9.10;99.90;;;;;;5056862;28;20054;-85
2024/01/22 06:19:07;;;;;;;;;;;9.10;99.90;;;;;;5079811;28;19945;-84
2024/01/22 06:21:32;;;;;;;;;;;9.10;99.90;;;;;;5081431;28;19963;-84
2024/01/22 06:23:58;;;;;;;;;;;9.10;99.90;;;;;;5086934;28;20011;-84
2024/01/22 06:26:24;;;;;;;;;;;9.10;99.90;;;;;;5080529;28;20044;-84
2024/01/22 06:28:49;;;;;;;;;;;9.10;99.90;;;;;;5063705;28;19953;-84
2024/01/22 06:31:15;;;;;;;;;;;9.20;99.90;;;;;;5050234;28;19939;-84
2024/01/22 06:33:40;;;;;;;;;;;9.10;99.90;;;;;;5046512;28;20095;-84
2024/01/22 06:36:06;;;;;;;;;;;9.10;99.90;;;;;;5051509;28;19957;-84
2024/01/22 06:38:31;;;;;;;;;;;9.10;99.90;;;;;;5056510;28;20362;-84
2024/01/22 06:40:57;;;;;;;;;;;9.10;99.90;;;;;;5052941;28;19948;-84
2024/01/22 06:43:22;;;;;;;;;;;9.00;99.90;;;;;;5054718;28;19937;-84
2024/01/22 06:45:48;;;;;;;;;;;9.00;99.90;;;;;;5059939;28;20412;-84
2024/01/22 06:48:14;;;;;;;;;;;9.00;99.90;;;;;;5046568;28;19953;-85
2024/01/22 06:50:40;;;;;;;;;;;8.90;99.90;;;;;;5047864;28;20481;-84
2024/01/22 06:53:05;;;;;;;;;;;8.90;99.90;;;;;;5062048;28;19943;-84
2024/01/22 06:55:31;;;;;;;;;;;8.90;99.90;;;;;;5053505;28;19953;-84
2024/01/22 06:57:56;;;;;;;;;;;8.90;99.90;;;;;;5047773;28;20079;-83
2024/01/22 07:00:26;;;;;;;;;;;8.90;99.90;;;;;;5052497;28;19936;-84
2024/01/22 07:02:52;;;;;;;;;;;8.90;99.90;;;;;;5049776;28;19938;-84
2024/01/22 07:05:18;;;;;;;;;;;8.90;99.90;;;;;;5051354;28;20276;-83
2024/01/22 07:07:43;;;;;;;;;;;8.90;99.90;;;;;;5053218;28;19940;-84
2024/01/22 07:10:09;;;;;;;;;;;8.90;99.90;;;;;;5048342;28;20005;-83
2024/01/22 07:12:35;;;;;;;;;;;8.90;99.90;;;;;;5045342;28;19956;-84
2024/01/22 07:15:01;;;;;;;;;;;9.00;99.90;;;;;;5044086;28;20000;-83
2024/01/22 07:17:27;;;;;;;;;;;9.00;99.90;;;;;;5053334;28;19951;-86
2024/01/22 07:19:55;;;;;;;;;;;9.00;99.90;;;;;;5049010;28;19949;-84
2024/01/22 07:22:20;;;;;;;;;;;8.90;99.90;;;;;;5050055;28;20044;-83
2024/01/22 07:24:46;;;;;;;;;;;8.90;99.90;;;;;;5047467;28;20032;-83
2024/01/22 07:27:12;;;;;;;;;;;8.80;99.90;;;;;;5042607;28;19942;-85
2024/01/22 07:29:37;;;;;;;;;;;8.80;99.90;;;;;;5049445;28;20396;-85
2024/01/22 07:32:03;;;;;;;;;;;8.90;99.90;;;;;;5048975;28;19946;-85
2024/01/22 07:34:28;;;;;;;;;;;8.80;99.90;;;;;;5046048;28;19971;-83
2024/01/22 07:36:54;;;;;;;;;;;8.90;99.90;;;;;;5390844;22;25108;-82
2024/01/22 07:39:19;;;;;;;;;;;8.90;99.90;;;;;;5002975;28;19955;-81
2024/01/22 07:41:45;;;;;;;;;;;8.90;99.90;;;;;;5006918;28;20199;-81
2024/01/22 07:44:10;;;;;;;;;;;8.80;99.90;;;;;;4998246;28;19945;-83
2024/01/22 07:46:36;;;;;;;;;;;8.70;99.90;;;;;;5009856;28;20621;-84
2024/01/22 07:49:01;;;;;;;;;;;8.70;99.90;;;;;;5002639;28;19946;-81
2024/01/22 07:51:28;;;;;;;;;;;8.60;99.90;;;;;;5004852;28;19953;-81
2024/01/22 07:53:54;;;;;;;;;;;8.60;99.90;;;;;;5006045;28;20486;-82
2024/01/22 07:56:20;;;;;;;;;;;8.50;99.90;;;;;;5006779;28;19958;-82
2024/01/22 07:58:46;;;;;;;;;;;8.50;99.90;;;;;;4986072;28;19945;-81
2024/01/22 08:01:12;;;;;;;;;;;8.60;99.90;;;;;;5003363;28;20028;-82
2024/01/22 08:03:38;;;;;;;;;;;8.50;99.90;;;;;;4990389;28;19977;-82
2024/01/22 08:06:04;;;;;;;;;;;8.60;99.90;;;;;;5000269;28;20631;-84
2024/01/22 08:08:29;;;;;;;;;;;8.70;99.90;;;;;;5008607;28;19996;-81
2024/01/22 08:10:55;;;;;;;;;;;8.70;99.90;;;;;;5007734;28;19933;-83
2024/01/22 08:13:21;;;;;;;;;;;8.80;99.90;;;;;;5026537;28;20247;-81
2024/01/22 08:15:47;;;;;;;;;;;8.70;99.90;;;;;;5024409;28;20142;-80
2024/01/22 08:18:13;;;;;;;;;;;8.70;99.90;;;;;;5027881;28;19957;-80
2024/01/22 08:20:39;;;;;;;;;;;8.60;99.90;;;;;;5023910;28;19958;-80
2024/01/22 08:23:05;;;;;;;;;;;8.60;99.90;;;;;;5007233;28;19947;-80
2024/01/22 08:25:30;;;;;;;;;;;8.60;99.90;;;;;;5008900;28;19952;-80
2024/01/22 08:27:56;;;;;;;;;;;8.60;99.90;;;;;;5002668;28;20393;-81
2024/01/22 08:30:22;;;;;;;;;;;8.60;99.90;;;;;;5006816;28;20657;-80
2024/01/22 08:32:48;;;;;;;;;;;8.60;99.90;;;;;;4998452;28;19945;-85
2024/01/22 08:35:14;;;;;;;;;;;8.60;99.90;;;;;;4998132;28;19941;-83
2024/01/22 08:37:40;;;;;;;;;;;8.60;99.90;;;;;;4992858;28;19959;-83
2024/01/22 08:40:06;;;;;;;;;;;8.60;99.90;;;;;;4994870;28;20399;-81
2024/01/22 08:42:33;;;;;;;;;;;8.60;99.90;;;;;;4998940;28;21822;-83
2024/01/22 08:44:58;;;;;;;;;;;8.60;99.90;;;;;;4999830;28;20254;-85
2024/01/22 08:47:24;;;;;;;;;;;8.60;99.90;;;;;;5024175;28;19983;-86
2024/01/22 08:49:49;;;;;;;;;;;8.70;99.90;;;;;;5015737;28;20054;-82
2024/01/22 08:52:15;;;;;;;;;;;8.80;99.90;;;;;;5023639;28;19959;-84
2024/01/22 08:54:40;;;;;;;;;;;8.70;99.90;;;;;;5028902;28;19936;-87
2024/01/22 08:57:07;;;;;;;;;;;8.80;99.90;;;;;;4996758;28;19951;-85
2024/01/22 08:59:32;;;;;;;;;;;8.80;99.90;;;;;;5007608;28;19954;-84
2024/01/22 09:01:59;;;;;;;;;;;8.80;99.90;;;;;;4996596;28;19957;-83
2024/01/22 09:04:24;;;;;;;;;;;8.90;99.90;;;;;;4990285;28;19954;-82
2024/01/22 09:06:51;;;;;;;;;;;8.90;99.90;;;;;;4997201;28;19959;-84
2024/01/22 09:09:16;;;;;;;;;;;8.80;99.90;;;;;;4997667;28;20043;-84
2024/01/22 09:11:42;;;;;;;;;;;8.80;99.90;;;;;;4997164;28;19939;-85
2024/01/22 09:14:07;;;;;;;;;;;8.90;99.90;;;;;;4994897;28;20059;-83
2024/01/22 09:16:33;;;;;;;;;;;9.00;99.90;;;;;;4997321;28;19941;-82
2024/01/22 09:18:59;;;;;;;;;;;9.00;99.90;;;;;;4995031;28;20192;-84
2024/01/22 09:21:24;;;;;;;;;;;9.10;99.90;;;;;;4991940;28;19943;-82
2024/01/22 09:23:50;;;;;;;;;;;9.10;99.90;;;;;;4996463;28;20407;-82
2024/01/22 09:26:15;;;;;;;;;;;9.10;99.90;;;;;;4999347;28;20036;-84
2024/01/22 09:28:41;;;;;;;;;;;9.20;99.90;;;;;;5003903;28;20129;-85
2024/01/22 09:31:06;;;;;;;;;;;9.30;99.90;;;;;;4996901;28;20245;-87
2024/01/22 09:33:32;;;;;;;;;;;9.30;99.90;;;;;;4991091;28;20038;-84
2024/01/22 09:35:57;;;;;;;;;;;9.40;99.90;;;;;;4999087;28;20553;-86
2024/01/22 09:38:23;;;;;;;;;;;9.40;99.90;;;;;;5002720;28;20097;-85
2024/01/22 09:40:50;;;;;;;;;;;9.90;99.90;;;;;;4998833;28;20156;-84
2024/01/22 09:43:16;;;;;;;;;;;10.30;99.90;;;;;;4995063;28;20010;-84
2024/01/22 09:45:46;;;;;;;;;;;10.60;99.90;;;;;;4998868;28;20780;-86
2024/01/22 09:48:12;;;;;;;;;;;10.70;99.90;;;;;;5009544;28;20365;-85
2024/01/22 09:50:37;;;;;;;;;;;10.80;99.90;;;;;;5004295;28;19975;-86
2024/01/22 09:53:11;;;;;;;;;;;11.00;99.90;;;;;;5001340;28;20507;-86
2024/01/22 09:55:39;;;;;;;;;;;11.60;99.90;;;;;;4998031;28;19943;-87
2024/01/22 09:58:07;;;;;;;;;;;11.60;99.90;;;;;;5004256;28;20015;-87
2024/01/22 10:00:34;;;;;;;;;;;11.90;99.90;;;;;;4995404;28;19943;-84
2024/01/22 10:03:00;;;;;;;;;;;11.30;99.90;;;;;;5002245;28;19975;-86
2024/01/22 10:05:26;;;;;;;;;;;11.00;99.90;;;;;;5011566;28;20052;-85
2024/01/22 10:07:51;;;;;;;;;;;11.20;99.90;;;;;;5002702;28;19970;-86
2024/01/22 10:10:17;;;;;;;;;;;11.40;99.90;;;;;;5004502;28;19966;-86
2024/01/22 10:12:59;;;;;;;;;;;11.50;99.90;;;;;;4999713;28;20439;-84
2024/01/22 10:15:26;;;;;;;;;;;11.90;99.90;;;;;;5009905;28;19976;-86
2024/01/22 10:17:52;;;;;;;;;;;12.40;99.90;;;;;;5008049;28;20269;-86
2024/01/22 10:20:21;;;;;;;;;;;12.80;99.90;;;;;;5017139;28;20120;-88
2024/01/22 10:22:47;;;;;;;;;;;13.30;99.90;;;;;;5012421;28;20996;-83
2024/01/22 10:25:12;;;;;;;;;;;13.30;99.90;;;;;;5023811;28;19984;-85
2024/01/22 10:27:38;;;;;;;;;;;13.40;88.30;;;;;;5030241;28;20134;-91
2024/01/22 10:30:11;;;;;;;;;;;13.20;99.60;;;;;;5032798;28;19956;-88
2024/01/22 10:32:37;;;;;;;;;;;13.90;99.90;;;;;;5013140;28;20541;-88
2024/01/22 10:35:03;;;;;;;;;;;13.70;89.90;;;;;;5005660;28;20109;-88
2024/01/22 10:37:29;;;;;;;;;;;13.50;92.40;;;;;;5011657;28;21370;-88
2024/01/22 10:40:03;;;;;;;;;;;13.20;95.00;;;;;;5004551;28;20098;-82
2024/01/22 10:42:29;;;;;;;;;;;12.70;93.00;;;;;;5007032;28;20303;-85
2024/01/22 10:44:56;;;;;;;;;;;12.10;96.60;;;;;;5005282;28;19944;-84
2024/01/22 10:47:21;;;;;;;;;;;11.60;90.40;;;;;;5010527;28;20069;-87
2024/01/22 10:49:47;;;;;;;;;;;11.30;91.30;;;;;;5014797;28;20813;-87
2024/01/22 10:52:13;;;;;;;;;;;11.50;94.00;;;;;;5015840;28;19950;-80
2024/01/22 10:54:40;;;;;;;;;;;11.70;95.40;;;;;;5011160;28;19946;-84
2024/01/22 10:57:07;;;;;;;;;;;12.40;91.40;;;;;;5006694;28;19995;-80
2024/01/22 10:59:35;;;;;;;;;;;12.20;93.90;;;;;;5016053;28;19942;-86
2024/01/22 11:02:02;;;;;;;;;;;11.70;92.70;;;;;;5036360;28;19975;-86
2024/01/22 11:04:34;;;;;;;;;;;11.10;97.20;;;;;;5020885;28;20230;-84
2024/01/22 11:07:01;;;;;;;;;;;11.50;93.40;;;;;;5037560;28;19955;-84
2024/01/22 11:09:30;;;;;;;;;;;12.40;95.90;;;;;;5028428;28;19956;-82
2024/01/22 11:11:56;;;;;;;;;;;12.40;94.30;;;;;;5016384;28;20001;-85
2024/01/22 11:14:21;;;;;;;;;;;12.40;94.00;;;;;;5002440;28;19952;-82
2024/01/22 11:16:47;;;;;;;;;;;12.60;92.40;;;;;;5009707;28;19991;-87
2024/01/22 11:19:19;;;;;;;;;;;12.90;79.60;;;;;;5010392;28;19991;-83
2024/01/22 11:21:44;;;;;;;;;;;12.30;80.90;;;;;;4999235;28;20043;-80
2024/01/22 11:24:19;;;;;;;;;;;11.90;76.70;;;;;;5002529;28;20679;-81
2024/01/22 11:27:01;;;;;;;;;;;11.90;80.80;;;;;;4999278;28;20510;-82
2024/01/22 11:29:27;;;;;;;;;;;12.30;78.50;;;;;;5007839;28;19945;-86
2024/01/22 11:31:53;;;;;;;;;;;14.00;68.50;;;;;;4995850;28;20560;-82
2024/01/22 11:34:39;;;;;;;;;;;14.50;65.80;;;;;;5004731;28;19940;-84
2024/01/22 11:37:04;;;;;;;;;;;14.70;63.40;;;;;;5000717;28;19952;-81
2024/01/22 11:39:42;;;;;;;;;;;13.90;64.00;;;;;;5007004;28;19940;-82
2024/01/22 11:42:25;;;;;;;;;;;12.80;71.90;;;;;;5005443;28;20226;-87
2024/01/22 11:44:51;;;;;;;;;;;12.40;73.60;;;;;;5004628;28;25080;-82
2024/01/22 11:47:18;;;;;;;;;;;12.80;73.90;;;;;;5008096;28;19967;-81
2024/01/22 11:49:43;;;;;;;;;;;12.80;71.90;;;;;;5008920;28;19938;-83
2024/01/22 11:52:11;;;;;;;;;;;12.10;76.10;;;;;;5002988;28;20309;-87
2024/01/22 11:54:36;;;;;;;;;;;12.00;75.90;;;;;;5008646;28;20013;-84
2024/01/22 11:57:02;;;;;;;;;;;11.80;80.60;;;;;;5005497;28;20289;-81
2024/01/22 11:59:28;;;;;;;;;;;12.00;77.00;;;;;;5001541;28;19945;-81
2024/01/22 12:02:10;;;;;;;;;;;12.10;76.40;;;;;;4991198;28;20009;-84
2024/01/22 12:04:36;;;;;;;;;;;12.20;78.60;;;;;;4997290;28;20106;-85
2024/01/22 12:07:01;;;;;;;;;;;12.20;79.80;;;;;;4996109;28;19989;-82
2024/01/22 12:09:34;;;;;;;;;;;12.40;76.60;;;;;;5001735;28;19938;-84
2024/01/22 12:12:03;;;;;;;;;;;12.20;75.60;;;;;;4992175;28;19956;-86
2024/01/22 12:14:28;;;;;;;;;;;11.90;76.90;;;;;;4991806;28;20044;-82
2024/01/22 12:17:02;;;;;;;;;;;11.50;80.40;;;;;;4989162;28;20405;-85
2024/01/22 12:19:28;;;;;;;;;;;11.40;79.40;;;;;;4992435;28;19980;-83
2024/01/22 12:21:53;;;;;;;;;;;11.40;79.50;;;;;;5001382;28;19955;-86
2024/01/22 12:24:19;;;;;;;;;;;11.80;79.40;;;;;;4986053;28;19956;-86
2024/01/22 12:26:45;;;;;;;;;;;11.80;76.80;;;;;;4987345;28;20435;-82
2024/01/22 12:29:19;;;;;;;;;;;11.50;78.60;;;;;;5009915;28;20317;-89
2024/01/22 12:31:44;;;;;;;;;;;11.50;78.90;;;;;;5017714;28;20001;-89
2024/01/22 12:34:11;;;;;;;;;;;12.70;74.00;;;;;;5014952;28;19945;-90
2024/01/22 12:36:36;;;;;;;;;;;13.90;72.00;;;;;;5010814;28;19942;-86
2024/01/22 12:39:03;;;;;;;;;;;14.80;62.60;;;;;;5002461;28;19947;-87
2024/01/22 12:41:31;;;;;;;;;;;15.90;57.30;;;;;;4988610;28;19948;-88
2024/01/22 12:43:57;;;;;;;;;;;15.90;56.60;;;;;;4991415;28;20038;-86
2024/01/22 12:46:23;;;;;;;;;;;14.90;58.60;;;;;;4992551;28;19948;-90
2024/01/22 12:48:49;;;;;;;;;;;13.50;64.90;;;;;;4990921;28;19972;-85
2024/01/22 12:51:17;;;;;;;;;;;14.30;62.90;;;;;;4979195;28;23215;-92
2024/01/22 12:53:44;;;;;;;;;;;14.60;59.40;;;;;;5002739;28;19951;-88
2024/01/22 12:56:10;;;;;;;;;;;14.30;60.00;;;;;;4996620;28;20503;-80
2024/01/22 12:58:36;;;;;;;;;;;14.60;60.90;;;;;;4991932;28;20674;-77
2024/01/22 13:01:02;;;;;;;;;;;15.50;57.40;;;;;;4987231;28;20404;-85
2024/01/22 13:03:27;;;;;;;;;;;15.30;59.90;;;;;;4988438;28;19954;-79
2024/01/22 13:05:53;;;;;;;;;;;15.60;60.10;;;;;;4992535;28;19943;-85
2024/01/22 13:08:19;;;;;;;;;;;15.60;58.40;;;;;;4981806;28;20029;-82
2024/01/22 13:10:45;;;;;;;;;;;15.70;58.10;;;;;;4987346;28;19946;-89
2024/01/22 13:13:11;;;;;;;;;;;15.90;55.20;;;;;;5008343;28;20346;-83
2024/01/22 13:15:37;;;;;;;;;;;16.10;55.10;;;;;;5030561;28;19928;-82
2024/01/22 13:18:04;;;;;;;;;;;16.10;55.60;;;;;;5031042;28;20150;-88
2024/01/22 13:20:31;;;;;;;;;;;15.30;56.00;;;;;;5016133;28;19950;-84
2024/01/22 13:22:57;;;;;;;;;;;13.80;61.40;;;;;;5000792;28;20055;-81
2024/01/22 13:25:22;;;;;;;;;;;13.20;64.70;;;;;;5008270;28;19949;-81
2024/01/22 13:27:49;;;;;;;;;;;13.50;64.70;;;;;;5005992;28;19944;-84
2024/01/22 13:30:16;;;;;;;;;;;13.70;63.30;;;;;;5006995;28;20203;-84
2024/01/22 13:32:42;;;;;;;;;;;14.30;59.30;;;;;;5005164;28;20507;-84
2024/01/22 13:35:08;;;;;;;;;;;14.20;59.00;;;;;;5008005;28;19941;-82
2024/01/22 13:37:34;;;;;;;;;;;14.50;59.20;;;;;;5013669;28;19952;-88
2024/01/22 13:39:59;;;;;;;;;;;14.20;58.20;;;;;;5002769;28;21554;-82
2024/01/22 13:42:25;;;;;;;;;;;13.40;63.90;;;;;;5002442;28;19945;-83
2024/01/22 13:44:50;;;;;;;;;;;12.90;64.90;;;;;;5002468;28;20221;-85
2024/01/22 13:47:19;;;;;;;;;;;12.50;66.20;;;;;;5011906;28;20021;-85
2024/01/22 13:49:44;;;;;;;;;;;12.50;65.70;;;;;;4997003;28;19978;-84
2024/01/22 13:52:10;;;;;;;;;;;13.00;62.70;;;;;;5000562;28;20039;-87
2024/01/22 13:54:36;;;;;;;;;;;12.60;64.40;;;;;;4999550;28;20331;-85
2024/01/22 13:57:01;;;;;;;;;;;13.60;63.60;;;;;;5004541;28;19973;-85
2024/01/22 13:59:27;;;;;;;;;;;14.90;57.80;;;;;;5002625;28;19950;-81
2024/01/22 14:01:55;;;;;;;;;;;14.90;56.50;;;;;;5002249;28;21204;-88
2024/01/22 14:04:21;;;;;;;;;;;15.50;55.60;;;;;;5003334;28;19948;-83
2024/01/22 14:06:47;;;;;;;;;;;15.20;56.50;;;;;;5009690;28;19958;-84
2024/01/22 14:09:14;;;;;;;;;;;14.70;58.60;;;;;;4999803;28;20409;-84
2024/01/22 14:11:40;;;;;;;;;;;13.80;60.70;;;;;;4988712;28;20340;-82
2024/01/22 14:14:07;;;;;;;;;;;13.60;60.90;;;;;;4999120;28;19941;-83
2024/01/22 14:16:32;;;;;;;;;;;13.20;62.50;;;;;;4997626;28;21183;-88
2024/01/22 14:18:58;;;;;;;;;;;12.60;64.30;;;;;;4990493;28;20000;-87